createdAt,value
2022-09-17T00:00:16.691Z,99.5
2022-09-17T00:01:22.879Z,99.5
2022-09-17T00:02:28.067Z,99.5
2022-09-17T00:03:34.254Z,99.5
2022-09-17T00:04:40.459Z,99.5
2022-09-17T00:05:46.583Z,99.5
2022-09-17T00:06:52.638Z,99.5
2022-09-17T00:07:58.940Z,99.5
2022-09-17T00:09:05.092Z,99.5
2022-09-17T00:10:11.136Z,99.5
2022-09-17T00:11:17.479Z,99.5
2022-09-17T00:12:23.481Z,99.5
2022-09-17T00:13:29.777Z,99.5
2022-09-17T00:14:35.873Z,99.5
2022-09-17T00:15:42.000Z,99.5
2022-09-17T00:16:47.186Z,99.5
2022-09-17T00:17:53.469Z,99.5
2022-09-17T00:18:59.611Z,99.5
2022-09-17T00:20:05.677Z,99.5
2022-09-17T00:21:11.873Z,99.5
2022-09-17T00:22:18.137Z,99.5
2022-09-17T00:23:24.307Z,99.5
2022-09-17T00:24:30.456Z,99.5
2022-09-17T00:25:36.638Z,99.5
2022-09-17T00:26:42.845Z,99.5
2022-09-17T00:27:48.869Z,99.5
2022-09-17T00:28:55.179Z,99.5
2022-09-17T00:30:01.337Z,99.5
2022-09-17T00:31:06.463Z,99.5
2022-09-17T00:32:12.675Z,99.5
2022-09-17T00:33:18.873Z,99.5
2022-09-17T00:34:24.913Z,99.5
2022-09-17T00:35:31.081Z,99.5
2022-09-17T00:36:37.264Z,99.5
2022-09-17T00:37:42.425Z,99.5
2022-09-17T00:38:48.726Z,99.5
2022-09-17T00:39:54.768Z,99.5
2022-09-17T00:41:01.044Z,99.5
2022-09-17T00:42:07.236Z,99.5
2022-09-17T00:43:13.394Z,99.5
2022-09-17T00:44:19.593Z,99.5
2022-09-17T00:45:25.618Z,99.5
2022-09-17T00:46:31.883Z,99.5
2022-09-17T00:47:38.097Z,99.5
2022-09-17T00:48:44.256Z,99.5
2022-09-17T00:49:50.353Z,99.5
2022-09-17T00:50:56.531Z,99.5
2022-09-17T00:52:01.763Z,99.5
2022-09-17T00:53:07.829Z,99.5
2022-09-17T00:54:14.042Z,99.5
2022-09-17T00:55:20.246Z,99.5
2022-09-17T00:56:26.463Z,99.5
2022-09-17T00:57:32.610Z,99.5
2022-09-17T00:58:38.669Z,99.5
2022-09-17T00:59:44.965Z,99.5
2022-09-17T01:00:51.153Z,99.5
2022-09-17T01:01:57.305Z,99.5
2022-09-17T01:03:03.444Z,99.5
2022-09-17T01:04:09.613Z,99.5
2022-09-17T01:05:15.784Z,99.5
2022-09-17T01:06:20.885Z,99.5
2022-09-17T01:07:27.039Z,99.5
2022-09-17T01:08:33.344Z,99.5
2022-09-17T01:09:39.376Z,99.5
2022-09-17T01:10:45.670Z,99.5
2022-09-17T01:11:51.790Z,99.5
2022-09-17T01:12:57.894Z,99.5
2022-09-17T01:14:04.161Z,99.5
2022-09-17T01:15:10.224Z,99.5
2022-09-17T01:16:16.507Z,99.5
2022-09-17T01:17:22.648Z,99.5
2022-09-17T01:18:28.777Z,99.5
2022-09-17T01:19:34.964Z,99.5
2022-09-17T01:20:40.202Z,99.5
2022-09-17T01:22:52.512Z,99.5
2022-09-17T01:23:58.710Z,99.5
2022-09-17T01:25:04.787Z,99.5
2022-09-17T01:26:10.948Z,99.5
2022-09-17T01:27:17.221Z,99.5
2022-09-17T01:28:23.398Z,99.5
2022-09-17T01:29:29.554Z,99.5
2022-09-17T01:30:35.656Z,99.5
2022-09-17T01:31:41.935Z,99.5
2022-09-17T01:32:48.065Z,99.5
2022-09-17T01:33:54.274Z,99.5
2022-09-17T01:34:59.454Z,99.5
2022-09-17T01:36:05.527Z,99.5
2022-09-17T01:37:11.649Z,99.5
2022-09-17T01:38:17.904Z,99.5
2022-09-17T01:39:23.984Z,99.5
2022-09-17T01:40:30.278Z,99.5
2022-09-17T01:41:36.327Z,99.5
2022-09-17T01:42:42.517Z,99.5
2022-09-17T01:43:48.796Z,99.5
2022-09-17T01:44:54.987Z,99.5
2022-09-17T01:46:01.021Z,99.5
2022-09-17T01:47:07.298Z,99.5
2022-09-17T01:48:13.359Z,99.5
2022-09-17T01:49:18.529Z,99.5
2022-09-17T01:50:24.710Z,99.5
2022-09-17T01:51:30.964Z,99.5
2022-09-17T01:52:37.045Z,99.5
2022-09-17T01:53:43.332Z,99.5
2022-09-17T01:54:49.463Z,99.5
2022-09-17T01:55:55.560Z,99.5
2022-09-17T01:57:01.718Z,99.5
2022-09-17T01:58:07.886Z,99.5
2022-09-17T01:59:14.059Z,99.5
2022-09-17T02:00:20.232Z,99.5
2022-09-17T02:01:26.408Z,99.5
2022-09-17T02:02:32.597Z,99.5
2022-09-17T02:03:37.894Z,99.5
2022-09-17T02:04:43.935Z,99.5
2022-09-17T02:05:50.095Z,99.5
2022-09-17T02:06:56.402Z,99.5
2022-09-17T02:08:02.466Z,99.5
2022-09-17T02:09:08.619Z,99.5
2022-09-17T02:10:14.781Z,99.5
2022-09-17T02:11:20.957Z,99.5
2022-09-17T02:12:27.263Z,99.5
2022-09-17T02:13:33.350Z,99.5
2022-09-17T02:14:39.582Z,99.5
2022-09-17T02:15:45.621Z,99.5
2022-09-17T02:16:51.789Z,99.5
2022-09-17T02:17:56.986Z,99.5
2022-09-17T02:19:03.153Z,99.5
2022-09-17T02:20:09.320Z,99.5
2022-09-17T02:21:15.597Z,99.5
2022-09-17T02:22:21.735Z,99.5
2022-09-17T02:23:27.832Z,99.5
2022-09-17T02:24:33.992Z,99.5
2022-09-17T02:25:40.196Z,99.5
2022-09-17T02:26:46.415Z,99.5
2022-09-17T02:27:52.587Z,99.5
2022-09-17T02:28:58.693Z,99.5
2022-09-17T02:30:04.833Z,99.5
2022-09-17T02:31:11.130Z,99.5
2022-09-17T02:32:16.318Z,99.5
2022-09-17T02:33:22.373Z,99.5
2022-09-17T02:34:28.546Z,99.5
2022-09-17T02:35:34.835Z,99.5
2022-09-17T02:36:40.983Z,99.5
2022-09-17T02:37:47.157Z,99.5
2022-09-17T02:38:53.323Z,99.5
2022-09-17T02:41:05.578Z,99.5
2022-09-17T02:42:11.743Z,99.5
2022-09-17T02:43:18.026Z,99.5
2022-09-17T02:44:24.064Z,99.5
2022-09-17T02:45:30.355Z,99.5
2022-09-17T02:46:35.523Z,99.5
2022-09-17T02:47:41.685Z,99.5
2022-09-17T02:48:47.762Z,99.5
2022-09-17T02:49:54.064Z,99.5
2022-09-17T02:51:00.091Z,99.5
2022-09-17T02:52:06.396Z,99.5
2022-09-17T02:53:12.562Z,99.5
2022-09-17T02:54:18.711Z,99.5
2022-09-17T02:55:24.772Z,99.5
2022-09-17T02:56:31.070Z,99.5
2022-09-17T02:57:37.225Z,99.5
2022-09-17T02:58:43.292Z,99.5
2022-09-17T02:59:49.590Z,99.5
2022-09-17T03:00:54.645Z,99.5
2022-09-17T03:02:00.808Z,99.5
2022-09-17T03:03:07.060Z,99.5
2022-09-17T03:05:19.450Z,99.5
2022-09-17T03:06:25.628Z,99.5
2022-09-17T03:07:31.770Z,99.5
2022-09-17T03:08:37.828Z,99.5
2022-09-17T03:09:44.091Z,99.5
2022-09-17T03:10:50.294Z,99.5
2022-09-17T03:11:56.463Z,99.5
2022-09-17T03:13:02.536Z,99.5
2022-09-17T03:14:08.816Z,99.5
2022-09-17T03:15:13.983Z,99.5
2022-09-17T03:16:20.165Z,99.5
2022-09-17T03:17:26.299Z,99.5
2022-09-17T03:18:32.377Z,99.5
2022-09-17T03:19:38.641Z,99.5
2022-09-17T03:20:44.696Z,99.5
2022-09-17T03:21:50.918Z,99.5
2022-09-17T03:22:57.059Z,99.5
2022-09-17T03:24:03.270Z,99.5
2022-09-17T03:25:09.488Z,99.5
2022-09-17T03:26:15.585Z,99.5
2022-09-17T03:27:21.720Z,99.5
2022-09-17T03:28:28.024Z,99.5
2022-09-17T03:29:33.187Z,99.5
2022-09-17T03:30:39.380Z,99.5
2022-09-17T03:31:45.544Z,99.5
2022-09-17T03:32:51.675Z,99.5
2022-09-17T03:33:57.871Z,99.5
2022-09-17T03:35:04.047Z,99.5
2022-09-17T03:36:10.222Z,99.5
2022-09-17T03:37:16.262Z,99.5
2022-09-17T03:38:22.472Z,99.5
2022-09-17T03:39:28.606Z,99.5
2022-09-17T03:40:34.806Z,99.5
2022-09-17T03:41:40.990Z,99.5
2022-09-17T03:42:47.122Z,99.5
2022-09-17T03:43:52.404Z,99.5
2022-09-17T03:44:58.618Z,99.5
2022-09-17T03:46:04.754Z,99.5
2022-09-17T03:47:10.817Z,99.5
2022-09-17T03:48:17.109Z,99.5
2022-09-17T03:49:23.275Z,99.5
2022-09-17T03:50:29.412Z,99.5
2022-09-17T03:51:35.489Z,99.5
2022-09-17T03:52:41.732Z,99.5
2022-09-17T03:53:47.967Z,99.5
2022-09-17T03:54:54.107Z,99.5
2022-09-17T03:56:00.151Z,99.5
2022-09-17T03:57:06.350Z,99.5
2022-09-17T03:58:11.548Z,99.5
2022-09-17T03:59:17.759Z,99.5
2022-09-17T04:00:23.917Z,99.5
2022-09-17T04:01:30.073Z,99.5
2022-09-17T04:02:36.212Z,99.5
2022-09-17T04:03:42.460Z,99.5
2022-09-17T04:04:48.628Z,99.5
2022-09-17T04:05:54.867Z,99.5
2022-09-17T04:07:01.015Z,99.5
2022-09-17T04:08:07.168Z,99.5
2022-09-17T04:09:13.212Z,99.5
2022-09-17T04:10:19.503Z,99.5
2022-09-17T04:11:25.606Z,99.5
2022-09-17T04:12:30.938Z,99.5
2022-09-17T04:13:36.988Z,99.5
2022-09-17T04:14:43.085Z,99.5
2022-09-17T04:15:49.372Z,99.5
2022-09-17T04:16:55.521Z,99.5
2022-09-17T04:18:01.708Z,99.5
2022-09-17T04:19:06.783Z,99.5
2022-09-17T04:20:13.053Z,99.5
2022-09-17T04:21:19.195Z,99.5
2022-09-17T04:22:25.441Z,99.5
2022-09-17T04:23:31.586Z,99.5
2022-09-17T04:24:37.762Z,99.5
2022-09-17T04:25:43.933Z,99.5
2022-09-17T04:26:49.974Z,99.5
2022-09-17T04:27:56.146Z,99.5
2022-09-17T04:29:02.339Z,99.5
2022-09-17T04:30:08.535Z,99.5
2022-09-17T04:31:14.729Z,99.5
2022-09-17T04:32:20.942Z,99.5
2022-09-17T04:33:25.991Z,99.5
2022-09-17T04:34:32.165Z,99.5
2022-09-17T04:35:38.397Z,99.5
2022-09-17T04:36:44.658Z,99.5
2022-09-17T04:37:50.705Z,99.5
2022-09-17T04:38:56.873Z,99.5
2022-09-17T04:40:03.018Z,99.5
2022-09-17T04:41:09.208Z,99.5
2022-09-17T04:42:15.387Z,99.5
2022-09-17T04:43:21.528Z,99.5
2022-09-17T04:44:27.702Z,99.5
2022-09-17T04:45:33.907Z,99.5
2022-09-17T04:46:40.134Z,99.5
2022-09-17T04:47:45.348Z,99.5
2022-09-17T04:48:51.397Z,99.5
2022-09-17T04:49:57.566Z,99.5
2022-09-17T04:51:03.886Z,99.5
2022-09-17T04:52:10.000Z,99.5
2022-09-17T04:53:16.071Z,99.5
2022-09-17T04:54:22.352Z,99.5
2022-09-17T04:55:28.560Z,99.5
2022-09-17T04:56:34.561Z,99.5
2022-09-17T04:57:40.888Z,99.5
2022-09-17T04:58:46.942Z,99.5
2022-09-17T04:59:53.134Z,99.5
2022-09-17T05:00:59.368Z,99.5
2022-09-17T05:02:04.456Z,99.5
2022-09-17T05:03:10.733Z,99.5
2022-09-17T05:04:16.931Z,99.5
2022-09-17T05:05:22.950Z,99.5
2022-09-17T05:06:29.238Z,99.5
2022-09-17T05:07:35.356Z,99.5
2022-09-17T05:08:41.448Z,99.5
2022-09-17T05:09:47.681Z,99.5
2022-09-17T05:10:53.907Z,99.5
2022-09-17T05:12:00.016Z,99.5
2022-09-17T05:13:06.124Z,99.5
2022-09-17T05:14:12.331Z,99.5
2022-09-17T05:15:18.584Z,99.5
2022-09-17T05:16:23.776Z,99.5
2022-09-17T05:17:29.908Z,99.5
2022-09-17T05:18:36.086Z,99.5
2022-09-17T05:19:42.162Z,99.5
2022-09-17T05:20:48.331Z,99.5
2022-09-17T05:21:54.573Z,99.5
2022-09-17T05:23:00.750Z,99.5
2022-09-17T05:24:06.940Z,99.5
2022-09-17T05:25:13.102Z,99.5
2022-09-17T05:26:19.296Z,99.5
2022-09-17T05:27:25.411Z,99.5
2022-09-17T05:28:31.664Z,99.5
2022-09-17T05:29:37.817Z,99.5
2022-09-17T05:30:42.871Z,99.5
2022-09-17T05:31:49.043Z,99.5
2022-09-17T05:32:55.350Z,99.5
2022-09-17T05:34:01.477Z,99.5
2022-09-17T05:35:07.636Z,99.5
2022-09-17T05:36:13.846Z,99.5
2022-09-17T05:37:20.026Z,99.5
2022-09-17T05:38:26.084Z,99.5
2022-09-17T05:39:32.352Z,99.5
2022-09-17T05:40:38.500Z,99.5
2022-09-17T05:41:44.688Z,99.5
2022-09-17T05:42:50.859Z,99.5
2022-09-17T05:43:56.973Z,99.5
2022-09-17T05:45:02.229Z,99.5
2022-09-17T05:46:08.356Z,99.5
2022-09-17T05:47:14.444Z,99.5
2022-09-17T05:48:20.605Z,99.5
2022-09-17T05:49:26.904Z,99.5
2022-09-17T05:50:33.049Z,99.5
2022-09-17T05:51:39.239Z,99.5
2022-09-17T05:52:45.441Z,99.5
2022-09-17T05:53:51.592Z,99.5
2022-09-17T05:54:57.745Z,99.5
2022-09-17T05:56:03.803Z,99.5
2022-09-17T05:57:09.978Z,99.5
2022-09-17T05:58:16.287Z,99.5
2022-09-17T05:59:21.450Z,99.5
2022-09-17T06:00:27.491Z,99.5
2022-09-17T06:01:33.748Z,99.5
2022-09-17T06:02:39.957Z,99.5
2022-09-17T06:03:45.993Z,99.5
2022-09-17T06:04:52.272Z,99.5
2022-09-17T06:05:58.460Z,99.5
2022-09-17T06:07:04.643Z,99.5
2022-09-17T06:08:10.809Z,99.5
2022-09-17T06:09:16.903Z,99.5
2022-09-17T06:10:23.173Z,99.5
2022-09-17T06:11:29.240Z,99.5
2022-09-17T06:12:35.500Z,99.5
2022-09-17T06:13:40.720Z,99.5
2022-09-17T06:14:46.810Z,99.5
2022-09-17T06:15:52.941Z,99.5
2022-09-17T06:16:59.167Z,99.5
2022-09-17T06:18:05.349Z,99.5
2022-09-17T06:19:11.441Z,99.5
2022-09-17T06:20:17.633Z,99.5
2022-09-17T06:21:23.844Z,99.5
2022-09-17T06:22:29.952Z,99.5
2022-09-17T06:23:36.207Z,99.5
2022-09-17T06:24:42.353Z,99.5
2022-09-17T06:25:48.529Z,99.5
2022-09-17T06:26:54.580Z,99.5
2022-09-17T06:27:59.889Z,99.5
2022-09-17T06:29:05.953Z,99.5
2022-09-17T06:30:12.272Z,99.5
2022-09-17T06:31:18.315Z,99.5
2022-09-17T06:32:24.559Z,99.5
2022-09-17T06:33:30.666Z,99.5
2022-09-17T06:34:36.900Z,99.5
2022-09-17T06:35:42.954Z,99.5
2022-09-17T06:36:49.235Z,99.5
2022-09-17T06:37:55.294Z,99.5
2022-09-17T06:39:01.566Z,99.5
2022-09-17T06:40:07.748Z,99
2022-09-17T06:41:13.788Z,99
2022-09-17T06:42:19.014Z,99
2022-09-17T06:43:25.182Z,99.5
2022-09-17T06:44:31.374Z,99
2022-09-17T06:45:37.523Z,98.5
2022-09-17T06:46:43.658Z,99
2022-09-17T06:47:49.842Z,99
2022-09-17T06:48:56.000Z,99
2022-09-17T06:50:02.263Z,99
2022-09-17T06:51:08.334Z,99
2022-09-17T06:52:14.505Z,99
2022-09-17T06:53:20.736Z,99
2022-09-17T06:54:26.886Z,99
2022-09-17T06:55:33.059Z,99
2022-09-17T06:56:38.207Z,99
2022-09-17T06:57:44.374Z,99.5
2022-09-17T06:58:50.576Z,99.5
2022-09-17T06:59:56.702Z,99.5
2022-09-17T07:01:02.888Z,99.5
2022-09-17T07:02:09.048Z,99
2022-09-17T07:03:15.306Z,99.5
2022-09-17T07:04:21.396Z,99.5
2022-09-17T07:05:27.624Z,98.5
2022-09-17T07:06:33.739Z,98.5
2022-09-17T07:07:39.974Z,98.5
2022-09-17T07:08:46.086Z,98.5
2022-09-17T07:09:52.273Z,98.5
2022-09-17T07:10:57.407Z,98.5
2022-09-17T07:12:03.584Z,99
2022-09-17T07:13:09.751Z,99
2022-09-17T07:14:15.926Z,99
2022-09-17T07:15:22.108Z,98.5
2022-09-17T07:16:28.274Z,99
2022-09-17T07:17:34.429Z,99
2022-09-17T07:18:40.594Z,98.5
2022-09-17T07:19:46.822Z,98.5
2022-09-17T07:20:52.958Z,99
2022-09-17T07:21:59.154Z,98.5
2022-09-17T07:23:05.301Z,98.5
2022-09-17T07:24:11.477Z,99
2022-09-17T07:25:16.631Z,98.5
2022-09-17T07:26:22.807Z,98.5
2022-09-17T07:27:28.980Z,98.5
2022-09-17T07:28:35.155Z,98.5
2022-09-17T07:29:41.314Z,98.5
2022-09-17T07:30:47.481Z,98.5
2022-09-17T07:31:53.648Z,98.5
2022-09-17T07:32:59.825Z,98.5
2022-09-17T07:34:05.999Z,99
2022-09-17T07:35:12.161Z,99
2022-09-17T07:36:18.395Z,99
2022-09-17T07:37:24.503Z,99
2022-09-17T07:38:30.677Z,99
2022-09-17T07:39:35.864Z,99
2022-09-17T07:40:42.027Z,99
2022-09-17T07:41:48.201Z,99
2022-09-17T07:42:54.359Z,99
2022-09-17T07:44:00.534Z,99
2022-09-17T07:45:06.701Z,99
2022-09-17T07:46:12.874Z,99
2022-09-17T07:47:19.038Z,99
2022-09-17T07:48:25.213Z,99
2022-09-17T07:49:31.386Z,98.5
2022-09-17T07:50:37.557Z,98.5
2022-09-17T07:51:43.731Z,99
2022-09-17T07:52:49.883Z,99
2022-09-17T07:53:55.076Z,98.5
2022-09-17T07:55:01.248Z,98.5
2022-09-17T07:56:07.413Z,98.5
2022-09-17T07:57:13.582Z,98.5
2022-09-17T07:58:19.759Z,98.5
2022-09-17T07:59:25.933Z,98.5
2022-09-17T08:00:31.109Z,98.5
2022-09-17T08:01:37.282Z,98
2022-09-17T08:02:43.466Z,98
2022-09-17T08:03:49.613Z,98
2022-09-17T08:04:55.793Z,98
2022-09-17T08:06:01.970Z,98
2022-09-17T08:07:08.139Z,97.5
2022-09-17T08:08:14.353Z,98
2022-09-17T08:09:20.461Z,98
2022-09-17T08:10:26.631Z,98
2022-09-17T08:11:32.816Z,97.5
2022-09-17T08:12:38.992Z,98
2022-09-17T08:13:45.161Z,98
2022-09-17T08:14:50.346Z,98
2022-09-17T08:15:56.515Z,98.5
2022-09-17T08:17:02.676Z,98
2022-09-17T08:18:08.842Z,98
2022-09-17T08:19:15.022Z,98
2022-09-17T08:20:21.173Z,98
2022-09-17T08:21:27.350Z,98
2022-09-17T08:22:33.518Z,98.5
2022-09-17T08:23:39.686Z,98.5
2022-09-17T08:24:45.932Z,98
2022-09-17T08:25:52.038Z,98
2022-09-17T08:26:58.222Z,97.5
2022-09-17T08:28:04.377Z,98
2022-09-17T08:29:09.547Z,98
2022-09-17T08:30:15.734Z,98
2022-09-17T08:31:21.887Z,98
2022-09-17T08:32:28.070Z,98
2022-09-17T08:33:34.253Z,98
2022-09-17T08:34:40.419Z,98.5
2022-09-17T08:35:46.579Z,98.5
2022-09-17T08:36:52.746Z,98.5
2022-09-17T08:37:58.909Z,98
2022-09-17T08:39:05.089Z,98.5
2022-09-17T08:40:11.241Z,98
2022-09-17T08:41:17.433Z,98.5
2022-09-17T08:42:23.611Z,98.5
2022-09-17T08:43:28.774Z,99
2022-09-17T08:44:34.944Z,98.5
2022-09-17T08:45:41.120Z,98.5
2022-09-17T08:46:47.280Z,98.5
2022-09-17T08:47:53.462Z,98
2022-09-17T08:48:59.621Z,98
2022-09-17T08:50:05.809Z,98.5
2022-09-17T08:51:11.953Z,98.5
2022-09-17T08:52:18.147Z,98
2022-09-17T08:53:24.325Z,98
2022-09-17T08:54:30.502Z,98
2022-09-17T08:55:36.682Z,98
2022-09-17T08:56:42.835Z,97.5
2022-09-17T08:57:48.002Z,97
2022-09-17T08:58:54.154Z,97.5
2022-09-17T09:00:00.336Z,96.5
2022-09-17T09:01:06.521Z,96.5
2022-09-17T09:02:12.664Z,97
2022-09-17T09:03:18.828Z,97.5
2022-09-17T09:04:25.014Z,96.5
2022-09-17T09:05:31.195Z,97
2022-09-17T09:06:37.338Z,97.5
2022-09-17T09:07:43.532Z,97
2022-09-17T09:08:49.748Z,97.5
2022-09-17T09:09:55.858Z,97.5
2022-09-17T09:11:02.036Z,98
2022-09-17T09:12:07.209Z,98
2022-09-17T09:13:13.401Z,98
2022-09-17T09:14:19.561Z,98.5
2022-09-17T09:15:25.726Z,98.5
2022-09-17T09:16:31.891Z,98.5
2022-09-17T09:17:38.055Z,98
2022-09-17T09:18:44.227Z,98.5
2022-09-17T09:19:50.400Z,98.5
2022-09-17T09:20:56.571Z,98
2022-09-17T09:22:02.738Z,98
2022-09-17T09:23:08.973Z,98
2022-09-17T09:24:15.118Z,98
2022-09-17T09:25:21.252Z,98.5
2022-09-17T09:26:26.427Z,98
2022-09-17T09:27:32.597Z,98
2022-09-17T09:28:38.769Z,98
2022-09-17T09:29:44.941Z,98
2022-09-17T09:30:51.098Z,98
2022-09-17T09:31:57.335Z,97.5
2022-09-17T09:33:03.446Z,97.5
2022-09-17T09:34:09.623Z,98
2022-09-17T09:35:15.795Z,98
2022-09-17T09:36:21.981Z,98
2022-09-17T09:37:28.139Z,98
2022-09-17T09:38:34.286Z,98
2022-09-17T09:39:40.458Z,97.5
2022-09-17T09:40:45.655Z,97.5
2022-09-17T09:41:51.823Z,97.5
2022-09-17T09:42:58.088Z,97
2022-09-17T09:44:04.162Z,96.5
2022-09-17T09:45:10.332Z,96.5
2022-09-17T09:46:16.506Z,97
2022-09-17T09:47:22.664Z,96.5
2022-09-17T09:48:28.834Z,97
2022-09-17T09:49:35.015Z,97
2022-09-17T09:50:41.178Z,97
2022-09-17T09:51:47.354Z,97
2022-09-17T09:52:53.526Z,98
2022-09-17T09:53:59.747Z,97.5
2022-09-17T09:55:05.008Z,97.5
2022-09-17T09:56:11.202Z,98
2022-09-17T09:57:17.318Z,97.5
2022-09-17T09:58:23.445Z,97.5
2022-09-17T09:59:29.548Z,97.5
2022-09-17T10:00:35.848Z,98
2022-09-17T10:01:41.894Z,98
2022-09-17T10:02:48.058Z,98
2022-09-17T10:03:54.257Z,98
2022-09-17T10:05:00.396Z,98.5
2022-09-17T10:06:06.590Z,98.5
2022-09-17T10:07:12.749Z,98.5
2022-09-17T10:08:18.917Z,98.5
2022-09-17T10:09:24.201Z,98
2022-09-17T10:10:30.269Z,98
2022-09-17T10:11:36.523Z,98
2022-09-17T10:12:42.650Z,97.5
2022-09-17T10:13:48.796Z,97.5
2022-09-17T10:14:54.968Z,98
2022-09-17T10:16:01.111Z,98.5
2022-09-17T10:17:07.270Z,98.5
2022-09-17T10:18:13.456Z,98.5
2022-09-17T10:19:19.624Z,98.5
2022-09-17T10:20:25.799Z,98.5
2022-09-17T10:21:31.947Z,98
2022-09-17T10:22:38.125Z,97.5
2022-09-17T10:23:43.321Z,97.5
2022-09-17T10:24:49.479Z,97.5
2022-09-17T10:25:55.668Z,97.5
2022-09-17T10:27:01.816Z,97.5
2022-09-17T10:28:07.995Z,97.5
2022-09-17T10:29:14.217Z,97
2022-09-17T10:30:20.350Z,96.5
2022-09-17T10:31:26.512Z,96
2022-09-17T10:32:32.676Z,95.5
2022-09-17T10:33:38.845Z,95.5
2022-09-17T10:34:45.022Z,93.5
2022-09-17T10:35:51.187Z,94
2022-09-17T10:36:57.344Z,92.5
2022-09-17T10:38:02.528Z,93
2022-09-17T10:39:08.693Z,93
2022-09-17T10:40:14.876Z,93.5
2022-09-17T10:41:21.040Z,92.5
2022-09-17T10:42:27.298Z,92
2022-09-17T10:43:33.393Z,93
2022-09-17T10:44:39.556Z,93
2022-09-17T10:45:45.716Z,93.5
2022-09-17T10:46:51.876Z,93.5
2022-09-17T10:47:58.057Z,94.5
2022-09-17T10:49:04.220Z,93.5
2022-09-17T10:50:10.393Z,94.5
2022-09-17T10:51:16.574Z,93.5
2022-09-17T10:52:21.784Z,94.5
2022-09-17T10:53:27.932Z,91.5
2022-09-17T10:54:34.096Z,93
2022-09-17T10:55:40.300Z,93
2022-09-17T10:56:46.422Z,93
2022-09-17T10:57:52.599Z,93.5
2022-09-17T10:58:58.762Z,93.5
2022-09-17T11:00:04.948Z,94.5
2022-09-17T11:01:11.144Z,93.5
2022-09-17T11:02:17.280Z,93
2022-09-17T11:03:23.453Z,94
2022-09-17T11:04:29.609Z,93.5
2022-09-17T11:05:35.789Z,94
2022-09-17T11:06:40.964Z,93.5
2022-09-17T11:07:47.142Z,92.5
2022-09-17T11:08:53.305Z,93.5
2022-09-17T11:09:59.476Z,95.5
2022-09-17T11:11:05.645Z,95
2022-09-17T11:12:11.842Z,95
2022-09-17T11:13:17.986Z,94.5
2022-09-17T11:14:24.163Z,95
2022-09-17T11:15:30.323Z,94.5
2022-09-17T11:16:36.516Z,95.5
2022-09-17T11:17:42.658Z,94.5
2022-09-17T11:18:48.846Z,93.5
2022-09-17T11:19:55.014Z,95
2022-09-17T11:21:00.235Z,94.5
2022-09-17T11:22:06.378Z,95
2022-09-17T11:23:12.519Z,95.5
2022-09-17T11:24:18.705Z,96
2022-09-17T11:25:24.857Z,95
2022-09-17T11:26:31.024Z,95.5
2022-09-17T11:27:37.212Z,96
2022-09-17T11:28:43.370Z,96.5
2022-09-17T11:29:49.536Z,95.5
2022-09-17T11:30:55.726Z,95
2022-09-17T11:32:01.868Z,94.5
2022-09-17T11:33:08.058Z,95.5
2022-09-17T11:34:14.239Z,95.5
2022-09-17T11:35:20.426Z,94.5
2022-09-17T11:36:25.596Z,94.5
2022-09-17T11:37:31.746Z,94.5
2022-09-17T11:38:37.917Z,95
2022-09-17T11:39:44.158Z,93.5
2022-09-17T11:40:50.251Z,94
2022-09-17T11:41:55.452Z,95
2022-09-17T11:43:01.618Z,96
2022-09-17T11:44:07.773Z,95
2022-09-17T11:45:13.958Z,94
2022-09-17T11:46:20.118Z,95
2022-09-17T11:47:26.288Z,95.5
2022-09-17T11:48:32.452Z,95
2022-09-17T11:49:38.637Z,93.5
2022-09-17T11:50:44.797Z,95
2022-09-17T11:51:51.023Z,94.5
2022-09-17T11:52:57.132Z,95.5
2022-09-17T11:54:03.303Z,95
2022-09-17T11:55:09.485Z,93
2022-09-17T11:56:14.662Z,94
2022-09-17T11:57:20.824Z,95
2022-09-17T11:58:27.006Z,94.5
2022-09-17T11:59:33.162Z,95.5
2022-09-17T12:00:39.357Z,95
2022-09-17T12:01:45.500Z,94
2022-09-17T12:02:51.685Z,95
2022-09-17T12:03:57.833Z,94
2022-09-17T12:05:04.021Z,95
2022-09-17T12:06:10.190Z,95.5
2022-09-17T12:07:16.376Z,95
2022-09-17T12:08:22.513Z,94.5
2022-09-17T12:09:28.693Z,94
2022-09-17T12:10:33.891Z,94
2022-09-17T12:11:40.050Z,94.5
2022-09-17T12:12:46.222Z,95.5
2022-09-17T12:13:52.379Z,95.5
2022-09-17T12:14:58.544Z,95.5
2022-09-17T12:16:04.735Z,93.5
2022-09-17T12:17:10.897Z,94.5
2022-09-17T12:18:17.061Z,93
2022-09-17T12:19:23.237Z,88.5
2022-09-17T12:20:29.408Z,86
2022-09-17T12:21:35.555Z,89
2022-09-17T12:22:41.744Z,90.5
2022-09-17T12:23:47.911Z,91.5
2022-09-17T12:24:53.099Z,89.5
2022-09-17T12:25:59.265Z,89
2022-09-17T12:27:05.435Z,88
2022-09-17T12:28:11.590Z,89.5
2022-09-17T12:29:17.772Z,90.5
2022-09-17T12:30:23.939Z,91.5
2022-09-17T12:31:30.156Z,89.5
2022-09-17T12:32:36.289Z,90
2022-09-17T12:33:42.450Z,91
2022-09-17T12:34:48.618Z,88
2022-09-17T12:35:54.782Z,88.5
2022-09-17T12:37:00.944Z,89.5
2022-09-17T12:38:07.130Z,89.5
2022-09-17T12:39:12.306Z,89.5
2022-09-17T12:40:18.478Z,91
2022-09-17T12:41:24.686Z,92
2022-09-17T12:42:30.815Z,92.5
2022-09-17T12:43:37.002Z,94
2022-09-17T12:44:43.172Z,93
2022-09-17T12:45:49.332Z,93
2022-09-17T12:46:55.545Z,90
2022-09-17T12:48:01.669Z,89
2022-09-17T12:49:07.832Z,89.5
2022-09-17T12:50:13.995Z,87.5
2022-09-17T12:51:20.181Z,86.5
2022-09-17T12:52:26.371Z,83.5
2022-09-17T12:53:31.531Z,83.5
2022-09-17T12:54:37.691Z,86.5
2022-09-17T12:55:43.865Z,87
2022-09-17T12:56:50.030Z,83.5
2022-09-17T12:57:56.196Z,87.5
2022-09-17T12:59:02.464Z,78.5
2022-09-17T13:00:08.578Z,85
2022-09-17T13:01:14.726Z,84
2022-09-17T13:02:21.117Z,80.5
2022-09-17T13:03:27.056Z,81
2022-09-17T13:04:33.225Z,80
2022-09-17T13:05:39.464Z,79
2022-09-17T13:06:45.568Z,78.5
2022-09-17T13:07:50.746Z,80.5
2022-09-17T13:08:56.930Z,75.5
2022-09-17T13:10:03.167Z,73.5
2022-09-17T13:11:09.372Z,76
2022-09-17T13:12:15.539Z,79.5
2022-09-17T13:13:21.736Z,74.5
2022-09-17T13:14:27.814Z,76.5
2022-09-17T13:15:33.939Z,73
2022-09-17T13:16:40.112Z,77.5
2022-09-17T13:17:46.263Z,79.5
2022-09-17T13:18:52.432Z,80
2022-09-17T13:19:58.603Z,85
2022-09-17T13:21:04.777Z,85
2022-09-17T13:22:10.091Z,84.5
2022-09-17T13:23:16.124Z,86.5
2022-09-17T13:24:22.297Z,89
2022-09-17T13:26:34.763Z,87
2022-09-17T13:27:40.815Z,84.5
2022-09-17T13:28:47.106Z,75.5
2022-09-17T13:29:53.286Z,78.5
2022-09-17T13:30:59.499Z,79
2022-09-17T13:32:05.587Z,77.5
2022-09-17T13:33:11.761Z,73
2022-09-17T13:34:17.930Z,76.5
2022-09-17T13:35:24.123Z,73.5
2022-09-17T13:36:29.323Z,66
2022-09-17T13:37:35.512Z,65.5
2022-09-17T13:38:41.515Z,67
2022-09-17T13:39:47.796Z,68.5
2022-09-17T13:40:54.004Z,68
2022-09-17T13:42:00.154Z,66
2022-09-17T13:43:06.349Z,73.5
2022-09-17T13:44:12.429Z,75
2022-09-17T13:45:18.531Z,76.5
2022-09-17T13:46:24.699Z,70
2022-09-17T13:47:30.937Z,75.5
2022-09-17T13:48:37.198Z,77
2022-09-17T13:49:43.260Z,72.5
2022-09-17T13:50:48.400Z,73.5
2022-09-17T13:51:54.723Z,67.5
2022-09-17T13:53:00.869Z,72
2022-09-17T13:54:07.040Z,67
2022-09-17T13:55:13.215Z,67
2022-09-17T13:56:19.390Z,71
2022-09-17T13:57:25.470Z,79
2022-09-17T13:58:31.740Z,73
2022-09-17T13:59:37.916Z,79
2022-09-17T14:00:43.922Z,82
2022-09-17T14:01:50.241Z,84
2022-09-17T14:02:56.395Z,83.5
2022-09-17T14:04:02.566Z,78
2022-09-17T14:05:07.732Z,75
2022-09-17T14:06:13.775Z,77.5
2022-09-17T14:07:20.109Z,84.5
2022-09-17T14:08:26.278Z,83.5
2022-09-17T14:09:32.429Z,83
2022-09-17T14:10:38.609Z,79.5
2022-09-17T14:11:44.789Z,77.5
2022-09-17T14:12:50.925Z,85
2022-09-17T14:13:57.107Z,85
2022-09-17T14:15:03.320Z,82.5
2022-09-17T14:16:09.294Z,80
2022-09-17T14:17:15.534Z,82
2022-09-17T14:18:21.672Z,82
2022-09-17T14:19:26.829Z,88
2022-09-17T14:20:33.003Z,86.5
2022-09-17T14:21:39.316Z,82.5
2022-09-17T14:22:45.506Z,87
2022-09-17T14:23:51.649Z,89.5
2022-09-17T14:24:57.715Z,91
2022-09-17T14:26:03.893Z,91
2022-09-17T14:27:10.173Z,90.5
2022-09-17T14:28:16.196Z,89.5
2022-09-17T14:29:22.352Z,91.5
2022-09-17T14:30:28.663Z,91.5
2022-09-17T14:31:34.704Z,90
2022-09-17T14:32:40.964Z,91.5
2022-09-17T14:33:46.134Z,91
2022-09-17T14:34:52.324Z,90.5
2022-09-17T14:35:58.547Z,91.5
2022-09-17T14:37:04.738Z,91.5
2022-09-17T14:38:10.729Z,91
2022-09-17T14:39:16.954Z,91.5
2022-09-17T14:40:23.239Z,92.5
2022-09-17T14:41:29.380Z,92.5
2022-09-17T14:42:35.550Z,91
2022-09-17T14:43:41.598Z,92
2022-09-17T14:44:47.832Z,92
2022-09-17T14:45:54.041Z,91
2022-09-17T14:47:00.238Z,92
2022-09-17T14:48:05.253Z,89.5
2022-09-17T14:49:11.435Z,90.5
2022-09-17T14:50:17.751Z,90
2022-09-17T14:51:23.906Z,91.5
2022-09-17T14:52:30.088Z,92
2022-09-17T14:53:36.245Z,89
2022-09-17T14:54:42.290Z,89
2022-09-17T14:55:48.599Z,86
2022-09-17T14:56:54.766Z,88.5
2022-09-17T14:58:00.923Z,90
2022-09-17T15:00:13.242Z,89.5
2022-09-17T15:01:19.298Z,86.5